Time;durP1;ratioP1;P1;durP2;ratioP2;P2;SDS_P1;SDS_P2;PMS_P1;PMS_P2;Temp;Humidity;BMP_temperature;BMP_pressure;BME280_temperature;BME280_humidity;BME280_pressure;Samples;Min_cycle;Max_cycle;Signal;HPM_P1;HPM_P2
2021/06/01 00:02:07;;;;;;;7.32;4.55;;;;;;;14.93;91.77;101535.53;4982948;28;20045;-72
2021/06/01 00:04:35;;;;;;;8.38;5.07;;;;;;;15.10;91.01;101540.44;4987058;28;20120;-72
2021/06/01 00:07:01;;;;;;;6.80;5.18;;;;;;;15.20;90.24;101537.13;4987052;28;20044;-72
2021/06/01 00:09:27;;;;;;;8.43;5.63;;;;;;;14.65;92.65;101535.03;4974153;28;20030;-72
2021/06/01 00:11:52;;;;;;;6.15;4.82;;;;;;;14.77;93.13;101534.88;4985172;28;20029;-72
2021/06/01 00:14:19;;;;;;;6.15;4.82;;;;;;;14.93;91.85;101535.53;4987289;28;20030;-72
2021/06/01 00:16:45;;;;;;;9.25;5.50;;;;;;;14.95;92.26;101528.59;4982879;28;20130;-72
2021/06/01 00:19:12;;;;;;;7.95;5.25;;;;;;;14.52;93.50;101528.22;4984124;28;20025;-72
2021/06/01 00:21:38;;;;;;;9.45;5.15;;;;;;;14.61;93.61;101521.44;4985593;28;20443;-72
2021/06/01 00:24:05;;;;;;;7.60;5.35;;;;;;;14.36;94.80;101510.09;4986366;28;20114;-72
2021/06/01 00:26:31;;;;;;;7.45;5.18;;;;;;;14.35;96.02;101522.09;4971495;28;20050;-73
2021/06/01 00:28:57;;;;;;;10.05;5.50;;;;;;;14.46;95.08;101517.66;4973955;28;20051;-73
2021/06/01 00:31:22;;;;;;;9.07;4.95;;;;;;;14.33;95.55;101521.69;4983728;28;20284;-72
2021/06/01 00:33:48;;;;;;;7.10;4.93;;;;;;;14.22;96.01;101520.66;4986131;28;20487;-72
2021/06/01 00:36:13;;;;;;;8.07;5.40;;;;;;;14.30;96.41;101516.94;4959203;28;20038;-72
2021/06/01 00:38:38;;;;;;;10.35;5.43;;;;;;;14.25;95.84;101519.94;4977823;28;20402;-72
2021/06/01 00:41:04;;;;;;;7.28;5.32;;;;;;;14.01;96.90;101517.53;4984945;28;20446;-72
2021/06/01 00:43:31;;;;;;;6.90;4.85;;;;;;;14.03;96.82;101515.22;4981579;28;20482;-72
2021/06/01 00:45:56;;;;;;;7.53;5.32;;;;;;;13.99;97.17;101517.09;4994961;28;20129;-72
2021/06/01 00:48:22;;;;;;;8.55;5.22;;;;;;;14.02;97.25;101524.50;4983827;28;20128;-72
2021/06/01 00:50:48;;;;;;;11.68;5.47;;;;;;;13.99;97.31;101517.09;4985292;28;20080;-72
2021/06/01 00:53:14;;;;;;;8.15;5.40;;;;;;;14.12;97.58;101509.59;4980888;28;20034;-72
2021/06/01 00:55:39;;;;;;;6.95;5.22;;;;;;;14.03;97.46;101517.16;4980626;28;20038;-72
2021/06/01 00:58:06;;;;;;;9.30;5.65;;;;;;;14.38;96.53;101518.66;4965934;28;20041;-72
2021/06/01 01:03:00;;;;;;;8.00;5.75;;;;;;;14.09;96.29;101508.38;4976928;28;20077;-72
2021/06/01 01:05:32;;;;;;;10.57;5.25;;;;;;;13.89;98.01;101522.28;4986050;28;20030;-72
2021/06/01 01:08:21;;;;;;;13.93;6.38;;;;;;;14.02;96.92;101516.38;4979154;28;20042;-72
2021/06/01 01:10:50;;;;;;;9.93;5.78;;;;;;;13.84;98.32;101520.63;4977904;28;20034;-72
2021/06/01 01:13:18;;;;;;;8.77;6.00;;;;;;;13.84;98.17;101514.47;4975594;28;20712;-72
2021/06/01 01:15:46;;;;;;;8.25;5.93;;;;;;;13.77;98.26;101517.78;4978270;28;20104;-72
2021/06/01 01:18:16;;;;;;;7.28;5.65;;;;;;;13.77;98.36;101519.69;4980985;28;20121;-72
2021/06/01 01:21:07;;;;;;;7.50;5.63;;;;;;;13.72;98.51;101517.28;4978247;28;20034;-72
2021/06/01 01:23:35;;;;;;;8.95;6.05;;;;;;;13.79;97.94;101518.22;4983603;28;20290;-72
2021/06/01 01:26:06;;;;;;;11.18;5.93;;;;;;;13.79;98.45;101522.84;4989708;28;20030;-72
2021/06/01 01:28:50;;;;;;;10.30;5.72;;;;;;;13.68;99.19;101522.63;4988209;28;20038;-72
2021/06/01 01:31:39;;;;;;;8.45;5.60;;;;;;;13.58;99.40;101523.97;4963491;28;20046;-72
2021/06/01 01:34:07;;;;;;;8.20;5.53;;;;;;;13.47;99.81;101514.03;4989392;28;20563;-72
2021/06/01 01:36:34;;;;;;;10.68;5.97;;;;;;;13.44;99.51;101518.22;4992572;28;20028;-71
2021/06/01 01:39:00;;;;;;;9.23;6.03;;;;;;;13.45;100.00;101513.63;4982368;28;20113;-72
2021/06/01 01:41:26;;;;;;;9.25;5.97;;;;;;;13.32;100.00;101507.50;4977641;28;20046;-72
2021/06/01 01:43:55;;;;;;;10.90;6.45;;;;;;;13.26;100.00;101517.03;4999310;28;20014;-72
2021/06/01 01:49:06;;;;;;;9.38;5.65;;;;;;;13.29;100.00;101515.56;4980165;28;20521;-72
2021/06/01 01:51:40;;;;;;;8.25;6.00;;;;;;;13.27;100.00;101512.41;4982588;28;20030;-72
2021/06/01 01:54:17;;;;;;;9.68;5.82;;;;;;;13.27;100.00;101513.19;4976300;28;20060;-72
2021/06/01 01:56:46;;;;;;;7.68;5.70;;;;;;;13.32;100.00;101504.81;4979228;28;20030;-73
2021/06/01 01:59:13;;;;;;;8.60;6.03;;;;;;;13.16;100.00;101512.16;4990283;28;20061;-73
2021/06/01 02:01:42;;;;;;;11.10;5.47;;;;;;;13.19;100.00;101505.25;4983768;28;20396;-73
2021/06/01 02:04:08;;;;;;;9.32;5.85;;;;;;;13.20;100.00;101512.25;4984260;28;20268;-73
2021/06/01 02:06:33;;;;;;;8.23;5.32;;;;;;;13.08;100.00;101512.34;4991622;28;20030;-73
2021/06/01 02:08:59;;;;;;;12.18;5.68;;;;;;;13.07;100.00;101506.16;4989270;28;20142;-73
2021/06/01 02:11:25;;;;;;;9.20;6.07;;;;;;;13.09;100.00;101509.28;4984959;28;20030;-73
2021/06/01 02:14:03;;;;;;;8.82;5.70;;;;;;;12.98;100.00;101510.13;4977877;28;20030;-73
2021/06/01 02:16:34;;;;;;;7.40;5.43;;;;;;;12.97;100.00;101509.34;4994161;28;20027;-73
2021/06/01 02:19:00;;;;;;;9.95;6.30;;;;;;;13.04;100.00;101511.47;4980406;28;20040;-73
2021/06/01 02:24:49;;;;;;;9.32;5.93;;;;;;;12.92;100.00;101501.50;5005441;28;20018;-73
2021/06/01 02:27:15;;;;;;;10.30;6.07;;;;;;;12.85;100.00;101506.75;5001616;28;20392;-73
2021/06/01 02:29:51;;;;;;;8.82;5.75;;;;;;;12.86;100.00;101494.78;4985005;28;20039;-73
2021/06/01 02:32:19;;;;;;;9.68;5.80;;;;;;;12.98;100.00;101507.44;4980965;28;20030;-73
2021/06/01 02:34:46;;;;;;;11.55;5.85;;;;;;;13.02;100.00;101505.59;5000840;28;20092;-73
2021/06/01 02:37:12;;;;;;;9.50;5.65;;;;;;;12.85;100.00;101504.03;4988126;28;20085;-73
2021/06/01 02:39:39;;;;;;;9.48;5.60;;;;;;;13.00;100.00;101499.75;4982819;28;20031;-73
2021/06/01 02:42:06;;;;;;;11.23;6.55;;;;;;;13.02;100.00;101505.59;4987444;28;20038;-73
2021/06/01 02:44:34;;;;;;;10.02;5.80;;;;;;;12.96;100.00;101502.38;4989538;28;20107;-73
2021/06/01 02:47:01;;;;;;;8.68;5.47;;;;;;;13.07;100.00;101506.16;4976721;28;20062;-73
2021/06/01 02:49:27;;;;;;;8.57;6.28;;;;;;;12.95;100.00;101508.91;4969985;28;20125;-73
2021/06/01 02:51:54;;;;;;;9.45;5.80;;;;;;;12.90;100.00;101505.69;4966607;28;20027;-73
2021/06/01 02:54:21;;;;;;;7.55;5.70;;;;;;;12.92;100.00;101504.22;4986254;28;20050;-73
2021/06/01 02:56:49;;;;;;;8.68;5.65;;;;;;;12.94;100.00;101506.56;4987503;28;20041;-73
2021/06/01 02:59:15;;;;;;;9.75;5.88;;;;;;;12.85;100.00;101514.84;4991336;28;20125;-73
2021/06/01 03:01:40;;;;;;;7.70;5.72;;;;;;;12.76;100.00;101502.63;4970593;28;20107;-73
2021/06/01 03:04:08;;;;;;;10.57;6.18;;;;;;;12.73;100.00;101500.63;4983968;28;20053;-73
2021/06/01 03:06:34;;;;;;;9.88;5.90;;;;;;;12.78;100.00;101501.16;4983062;28;20227;-73
2021/06/01 03:09:00;;;;;;;8.82;5.68;;;;;;;12.75;100.00;101496.44;4983905;28;20035;-73
2021/06/01 03:11:26;;;;;;;8.38;5.80;;;;;;;12.67;100.00;101502.81;4990990;28;20042;-72
2021/06/01 03:13:52;;;;;;;10.00;6.03;;;;;;;12.67;100.00;101492.00;4976771;28;20106;-73
2021/06/01 03:16:20;;;;;;;9.85;6.45;;;;;;;12.61;100.00;101494.16;4973512;28;20045;-73
2021/06/01 03:18:46;;;;;;;10.00;5.88;;;;;;;12.74;100.00;101486.75;4978384;28;20126;-73
2021/06/01 03:21:13;;;;;;;11.38;6.85;;;;;;;12.83;100.00;101494.69;4982569;28;20542;-72
2021/06/01 03:23:39;;;;;;;11.80;6.63;;;;;;;12.78;100.00;101492.25;4985301;28;20043;-72
2021/06/01 03:26:04;;;;;;;9.43;6.53;;;;;;;12.70;100.00;101488.59;5003058;28;20033;-72
2021/06/01 03:28:31;;;;;;;9.70;6.85;;;;;;;12.60;100.00;101489.13;4998391;28;20045;-72
2021/06/01 03:30:56;;;;;;;10.10;6.78;;;;;;;12.67;100.00;101492.00;4976018;28;20515;-72
2021/06/01 03:33:22;;;;;;;10.32;6.85;;;;;;;12.70;100.00;101486.66;4984648;28;20039;-72
2021/06/01 03:35:47;;;;;;;10.68;6.88;;;;;;;12.68;100.00;101497.03;4969844;28;20054;-71
2021/06/01 03:38:13;;;;;;;10.23;6.75;;;;;;;12.72;100.00;101490.97;4975249;28;20570;-70
2021/06/01 03:40:39;;;;;;;10.35;6.90;;;;;;;12.80;100.00;101481.88;4977529;28;20022;-71
2021/06/01 03:43:05;;;;;;;10.93;6.72;;;;;;;12.81;100.00;101483.44;4977748;28;20046;-71
2021/06/01 03:45:31;;;;;;;11.80;7.07;;;;;;;12.82;100.00;101485.00;4973744;28;20030;-72
2021/06/01 03:47:57;;;;;;;11.50;7.07;;;;;;;12.81;100.00;101481.53;4976712;28;20030;-71
2021/06/01 03:50:23;;;;;;;14.75;7.50;;;;;;;12.96;100.00;101483.44;4978070;28;20650;-71
2021/06/01 03:52:49;;;;;;;14.30;7.43;;;;;;;12.93;100.00;101486.84;4982155;28;20030;-71
2021/06/01 03:55:15;;;;;;;11.32;7.65;;;;;;;12.98;100.00;101483.09;4983293;28;20121;-71
2021/06/01 03:57:43;;;;;;;12.70;7.53;;;;;;;13.10;100.00;101483.03;4970007;28;20113;-71
2021/06/01 04:00:10;;;;;;;11.05;7.18;;;;;;;13.15;100.00;101467.31;4989561;28;20047;-71
2021/06/01 04:02:40;;;;;;;13.05;7.93;;;;;;;13.18;100.00;101474.72;4976377;28;20109;-71
2021/06/01 04:05:06;;;;;;;14.07;7.30;;;;;;;13.22;100.00;101472.13;4998045;28;20456;-71
2021/06/01 04:07:32;;;;;;;11.57;7.68;;;;;;;13.18;100.00;101476.66;4992973;28;20510;-71
2021/06/01 04:09:57;;;;;;;11.88;7.70;;;;;;;13.24;100.00;101476.03;4983818;28;20092;-71
2021/06/01 04:12:23;;;;;;;13.00;7.15;;;;;;;13.37;100.00;101468.59;4986242;28;20402;-72
2021/06/01 04:14:48;;;;;;;10.80;7.13;;;;;;;13.41;100.00;101472.16;4964709;28;20088;-72
2021/06/01 04:17:14;;;;;;;10.18;6.57;;;;;;;13.42;100.00;101471.00;4987119;28;20566;-70
2021/06/01 04:19:40;;;;;;;8.90;6.10;;;;;;;13.61;100.00;101472.97;4970677;28;20042;-71
2021/06/01 04:22:05;;;;;;;10.32;6.75;;;;;;;13.68;100.00;101473.13;4982317;28;20044;-71
2021/06/01 04:24:31;;;;;;;10.52;6.53;;;;;;;13.56;100.00;101468.63;4998128;28;20125;-72
2021/06/01 04:26:59;;;;;;;10.55;6.05;;;;;;;13.62;100.00;101474.53;4982145;28;20186;-71
2021/06/01 04:29:25;;;;;;;9.75;6.35;;;;;;;13.69;100.00;101464.63;4983810;28;20142;-71
2021/06/01 04:31:51;;;;;;;7.60;6.07;;;;;;;13.78;100.00;101472.56;4977384;28;20109;-72
2021/06/01 04:34:17;;;;;;;9.05;6.32;;;;;;;13.68;100.00;101473.13;4979907;28;20046;-71
2021/06/01 04:36:43;;;;;;;12.80;7.13;;;;;;;13.84;100.00;101468.44;4995519;28;20102;-71
2021/06/01 04:39:09;;;;;;;10.10;6.57;;;;;;;13.94;100.00;101471.34;4983950;28;20113;-71
2021/06/01 04:41:34;;;;;;;11.55;6.65;;;;;;;13.66;100.00;101470.78;4993874;28;20035;-71
2021/06/01 04:44:00;;;;;;;10.98;6.65;;;;;;;13.69;100.00;101474.66;4984402;28;20077;-71
2021/06/01 04:46:26;;;;;;;7.93;6.05;;;;;;;13.78;100.00;101462.50;4993156;28;20041;-71
2021/06/01 04:48:53;;;;;;;10.93;6.70;;;;;;;14.04;100.00;101468.06;4972833;28;20495;-71
2021/06/01 04:51:19;;;;;;;13.77;6.88;;;;;;;14.43;100.00;101468.81;4989454;28;20048;-72
2021/06/01 04:53:52;;;;;;;14.23;6.32;;;;;;;14.45;100.00;101464.59;4977545;28;20031;-71
2021/06/01 04:56:18;;;;;;;9.05;6.40;;;;;;;14.56;100.00;101477.53;4982829;28;20487;-72
2021/06/01 04:58:44;;;;;;;9.85;6.82;;;;;;;14.60;100.00;101483.81;4977534;28;20026;-72
2021/06/01 05:01:10;;;;;;;12.85;6.18;;;;;;;14.66;100.00;101480.44;4975460;28;20484;-72
2021/06/01 05:03:36;;;;;;;10.38;6.68;;;;;;;14.68;100.00;101483.59;4977369;28;20069;-71
2021/06/01 05:06:01;;;;;;;11.43;6.57;;;;;;;14.73;100.00;101480.56;4972998;28;20023;-70
2021/06/01 05:08:27;;;;;;;13.32;6.63;;;;;;;14.78;100.00;101476.78;4972186;28;20101;-71
2021/06/01 05:10:53;;;;;;;10.07;6.35;;;;;;;14.94;100.00;101486.31;4975460;28;20046;-71
2021/06/01 05:13:18;;;;;;;10.88;5.72;;;;;;;15.22;100.00;101475.13;4977011;28;20442;-73
2021/06/01 05:15:44;;;;;;;7.95;5.65;;;;;;;15.53;99.24;101474.03;4974850;28;20062;-71
2021/06/01 05:18:11;;;;;;;13.30;7.07;;;;;;;15.98;97.69;101482.78;4973494;28;20045;-71
2021/06/01 05:20:37;;;;;;;14.73;6.60;;;;;;;16.20;94.38;101487.28;4973261;28;20034;-71
2021/06/01 05:23:03;;;;;;;8.40;5.82;;;;;;;16.42;92.64;101482.06;4976992;28;20034;-72
2021/06/01 05:25:28;;;;;;;8.82;5.70;;;;;;;16.83;92.61;101483.66;4970666;28;20127;-72
2021/06/01 05:27:54;;;;;;;11.00;6.65;;;;;;;16.94;91.72;101479.06;4974424;28;20100;-70
2021/06/01 05:30:24;;;;;;;9.95;6.43;;;;;;;17.07;90.80;101480.34;4975724;28;20117;-72
2021/06/01 05:35:38;;;;;;;10.43;6.03;;;;;;;16.43;92.29;101473.56;4971452;28;20035;-71
2021/06/01 05:38:03;;;;;;;12.02;6.15;;;;;;;16.63;94.25;101474.94;4975200;28;20058;-71
2021/06/01 05:40:29;;;;;;;11.30;6.45;;;;;;;17.05;93.07;101471.78;4988266;28;20335;-71
2021/06/01 05:42:54;;;;;;;12.35;6.15;;;;;;;17.07;93.23;101478.41;4973832;28;20045;-71
2021/06/01 05:45:20;;;;;;;8.57;6.18;;;;;;;17.20;92.97;101470.72;4990256;28;20460;-71
2021/06/01 05:47:45;;;;;;;11.93;6.97;;;;;;;17.50;91.96;101467.81;4982676;28;20043;-71
2021/06/01 05:50:11;;;;;;;11.70;6.97;;;;;;;17.64;91.32;101465.16;4977981;28;20035;-70
2021/06/01 05:52:37;;;;;;;12.90;7.05;;;;;;;17.90;89.19;101468.38;4985978;28;20085;-71
2021/06/01 05:55:04;;;;;;;9.80;6.13;;;;;;;18.32;86.97;101458.75;4975109;28;20426;-70
2021/06/01 05:57:30;;;;;;;9.93;6.05;;;;;;;18.74;85.69;101467.00;4972606;28;20466;-70
2021/06/01 05:59:56;;;;;;;11.55;6.53;;;;;;;19.11;84.34;101459.19;4991574;28;20038;-70
2021/06/01 06:02:21;;;;;;;17.08;9.20;;;;;;;19.63;80.27;101469.22;4984639;28;20034;-70
2021/06/01 06:04:47;;;;;;;15.40;6.95;;;;;;;20.01;78.51;101472.97;4991274;28;20030;-70
2021/06/01 06:07:12;;;;;;;9.57;5.45;;;;;;;20.15;76.03;101472.88;4984975;28;20408;-70
2021/06/01 06:09:38;;;;;;;7.88;4.95;;;;;;;20.27;75.95;101479.88;4971208;28;20023;-73
2021/06/01 06:12:03;;;;;;;14.55;5.45;;;;;;;20.41;75.07;101483.31;4990958;28;20038;-71
2021/06/01 06:14:29;;;;;;;10.48;4.20;;;;;;;20.69;72.27;101482.34;4984690;28;20114;-70
2021/06/01 06:16:56;;;;;;;9.32;5.55;;;;;;;20.63;70.54;101481.22;4987227;28;20038;-70
2021/06/01 06:19:22;;;;;;;8.60;4.78;;;;;;;20.57;70.43;101477.34;4989135;28;20038;-71
2021/06/01 06:21:48;;;;;;;10.63;4.32;;;;;;;20.62;70.23;101480.44;4993571;28;20446;-70
2021/06/01 06:24:14;;;;;;;9.77;4.32;;;;;;;20.75;70.82;101477.22;4985906;28;20026;-71
2021/06/01 06:26:39;;;;;;;9.25;4.25;;;;;;;20.89;66.64;101477.88;4995630;28;20041;-71
2021/06/01 06:29:05;;;;;;;6.65;3.88;;;;;;;21.15;64.80;101479.22;5001271;28;20483;-71
2021/06/01 06:31:30;;;;;;;8.27;3.20;;;;;;;21.24;62.05;101471.31;4993634;28;20491;-72
2021/06/01 06:33:56;;;;;;;4.28;2.80;;;;;;;21.34;55.76;101482.16;4985414;28;20434;-71
2021/06/01 06:36:22;;;;;;;7.43;3.10;;;;;;;21.44;56.81;101475.81;4993180;28;20053;-72
2021/06/01 06:38:47;;;;;;;4.75;2.60;;;;;;;21.50;55.85;101479.63;4992184;28;20045;-73
2021/06/01 06:41:15;;;;;;;8.93;3.40;;;;;;;21.60;55.16;101485.41;4983922;28;20061;-73
2021/06/01 06:43:49;;;;;;;7.75;3.25;;;;;;;21.54;55.46;101482.34;4989260;28;20113;-72
2021/06/01 06:49:03;;;;;;;4.40;3.10;;;;;;;21.67;58.57;101485.31;4984601;28;20049;-72
2021/06/01 06:51:29;;;;;;;4.50;2.97;;;;;;;21.66;57.73;101490.03;4990097;28;20068;-72
2021/06/01 06:53:56;;;;;;;8.05;2.72;;;;;;;21.61;55.95;101479.50;4985493;28;20444;-72
2021/06/01 06:56:24;;;;;;;7.47;2.80;;;;;;;21.43;54.18;101479.72;4992024;28;20034;-72
2021/06/01 06:58:51;;;;;;;7.47;2.65;;;;;;;21.18;54.79;101481.94;5000650;28;20494;-72
2021/06/01 07:01:17;;;;;;;5.25;2.78;;;;;;;21.16;56.03;101467.84;4980859;28;20038;-72
2021/06/01 07:03:42;;;;;;;3.97;2.88;;;;;;;21.16;56.02;101476.06;4994817;28;20073;-73
2021/06/01 07:06:08;;;;;;;3.25;2.70;;;;;;;21.10;54.29;101471.47;4989473;28;20053;-72
2021/06/01 07:08:34;;;;;;;8.32;2.80;;;;;;;21.05;55.90;101475.41;4985539;28;20038;-72
2021/06/01 07:10:59;;;;;;;4.85;2.55;;;;;;;21.06;58.11;101470.72;4991104;28;20052;-70
2021/06/01 07:13:35;;;;;;;4.55;2.58;;;;;;;21.19;57.94;101469.00;4989453;28;21735;-72
2021/06/01 07:16:01;;;;;;;4.30;2.63;;;;;;;21.25;56.20;101470.13;4983138;28;20419;-72
2021/06/01 07:18:26;;;;;;;4.32;2.55;;;;;;;21.34;54.75;101470.41;4981946;28;20030;-72
2021/06/01 07:20:53;;;;;;;5.40;2.63;;;;;;;21.53;57.16;101470.59;4983058;28;20156;-72
2021/06/01 07:23:21;;;;;;;3.53;2.50;;;;;;;21.64;55.98;101472.44;4977458;28;20047;-72
2021/06/01 07:25:47;;;;;;;3.92;2.72;;;;;;;21.73;53.59;101470.75;4982109;28;20049;-72
2021/06/01 07:28:15;;;;;;;3.08;2.22;;;;;;;21.72;49.74;101465.69;4981599;28;20403;-72
2021/06/01 07:30:41;;;;;;;6.55;2.63;;;;;;;21.98;50.83;101464.97;4978797;28;20030;-71
2021/06/01 07:33:06;;;;;;;4.22;2.35;;;;;;;21.93;49.34;101473.69;4980552;28;20120;-71
2021/06/01 07:35:32;;;;;;;3.75;2.40;;;;;;;21.92;49.58;101475.63;4990767;28;20096;-71
2021/06/01 07:37:57;;;;;;;5.43;2.70;;;;;;;21.88;49.11;101474.91;4985938;28;20042;-72
2021/06/01 07:40:24;;;;;;;3.72;2.30;;;;;;;21.96;48.70;101472.84;4986826;28;20030;-71
2021/06/01 07:42:50;;;;;;;2.97;2.08;;;;;;;22.05;49.35;101467.63;4993403;28;20460;-72
2021/06/01 07:45:15;;;;;;;5.03;1.95;;;;;;;22.11;50.05;101469.50;4996457;28;20037;-71
2021/06/01 07:47:42;;;;;;;6.65;2.30;;;;;;;22.08;49.57;101464.06;4987373;28;20562;-72
2021/06/01 07:50:08;;;;;;;3.33;1.90;;;;;;;22.11;47.57;101465.97;4961970;28;20025;-72
2021/06/01 07:52:34;;;;;;;8.88;2.60;;;;;;;22.05;48.32;101454.69;4989855;28;20039;-72
2021/06/01 07:54:59;;;;;;;5.00;1.83;;;;;;;22.19;47.34;101472.91;4987220;28;20046;-72
2021/06/01 07:57:25;;;;;;;2.35;2.15;;;;;;;22.17;47.73;101462.34;4992093;28;20038;-72
2021/06/01 07:59:50;;;;;;;4.28;1.95;;;;;;;22.26;47.85;101459.09;4970766;28;20045;-71
2021/06/01 08:02:16;;;;;;;2.10;1.83;;;;;;;22.23;46.61;101459.91;4981925;28;20036;-72
2021/06/01 08:04:41;;;;;;;6.32;2.35;;;;;;;22.26;48.12;101462.59;4987635;28;20045;-72
2021/06/01 08:07:08;;;;;;;6.45;2.40;;;;;;;22.11;46.73;101455.00;4976551;28;20194;-71
2021/06/01 08:09:35;;;;;;;3.97;2.00;;;;;;;22.18;48.44;101463.91;4971610;28;20033;-71
2021/06/01 08:12:03;;;;;;;3.83;2.45;;;;;;;22.25;49.59;101452.84;4978546;28;20034;-71
2021/06/01 08:14:28;;;;;;;4.82;2.38;;;;;;;22.33;50.21;101459.00;4996270;28;20038;-70
2021/06/01 08:16:54;;;;;;;4.13;2.17;;;;;;;22.35;49.88;101454.66;4984246;28;20033;-71
2021/06/01 08:19:24;;;;;;;3.67;2.30;;;;;;;22.46;51.22;101448.97;4978053;28;20129;-71
2021/06/01 08:22:02;;;;;;;3.85;2.45;;;;;;;22.51;50.82;101448.53;4982743;28;20077;-71
2021/06/01 08:24:28;;;;;;;5.88;2.30;;;;;;;22.51;49.22;101451.28;4975510;28;20041;-71
2021/06/01 08:26:54;;;;;;;4.45;2.20;;;;;;;22.59;50.39;101452.72;4970174;28;20030;-71
2021/06/01 08:29:19;;;;;;;3.30;2.30;;;;;;;22.53;50.85;101457.09;4972686;28;20026;-71
2021/06/01 08:31:45;;;;;;;2.58;1.92;;;;;;;22.46;51.92;101446.22;4970972;28;20069;-71
2021/06/01 08:34:11;;;;;;;3.17;2.30;;;;;;;22.28;51.71;101437.47;4973512;28;20546;-71
2021/06/01 08:36:39;;;;;;;4.78;2.05;;;;;;;22.30;49.18;101440.59;4960222;28;20058;-71
2021/06/01 08:39:06;;;;;;;2.45;1.90;;;;;;;22.44;50.02;101432.16;4978197;28;20069;-71
2021/06/01 08:41:33;;;;;;;2.45;2.05;;;;;;;22.43;49.10;101436.84;4973540;28;20037;-71
2021/06/01 08:44:02;;;;;;;6.13;2.33;;;;;;;22.59;49.12;101424.50;4975995;28;20039;-72
2021/06/01 08:46:27;;;;;;;3.05;1.98;;;;;;;22.90;49.16;101436.91;4986370;28;20080;-72
2021/06/01 08:48:54;;;;;;;4.03;2.03;;;;;;;23.25;47.92;101430.75;4983074;28;20046;-71
2021/06/01 08:51:21;;;;;;;3.25;2.28;;;;;;;23.69;48.06;101438.50;4978155;28;20124;-72
2021/06/01 08:53:51;;;;;;;6.10;2.20;;;;;;;23.96;47.00;101425.34;4995117;28;20025;-72
2021/06/01 08:56:18;;;;;;;3.92;2.10;;;;;;;24.23;47.00;101427.16;4952248;28;20042;-72
2021/06/01 08:58:44;;;;;;;4.93;2.20;;;;;;;24.50;45.84;101424.91;4975074;28;20052;-72
2021/06/01 09:01:10;;;;;;;4.90;2.47;;;;;;;24.69;46.05;101432.31;4966952;28;20109;-72
2021/06/01 09:03:43;;;;;;;3.83;2.15;;;;;;;24.79;44.59;101421.06;4970611;28;20042;-72
2021/06/01 09:23:05;;;;;;;3.22;2.28;;;;;;;25.99;43.54;101414.91;4974235;28;20034;-71
2021/06/01 09:27:58;;;;;;;3.58;2.40;;;;;;;26.24;43.78;101401.09;4969258;28;20030;-71
2021/06/01 09:30:59;;;;;;;4.70;2.60;;;;;;;26.17;44.06;101404.06;4965388;28;20248;-71
2021/06/01 09:33:29;;;;;;;4.95;2.80;;;;;;;26.46;43.99;101398.44;4977129;28;20049;-72
2021/06/01 09:36:03;;;;;;;5.75;2.20;;;;;;;26.44;41.11;101396.09;4980168;28;20027;-71
2021/06/01 09:38:49;;;;;;;3.55;2.50;;;;;;;26.50;42.23;101393.56;4974950;28;20042;-71
2021/06/01 09:41:24;;;;;;;4.05;2.30;;;;;;;26.48;43.30;101393.97;4983231;28;20070;-71
2021/06/01 09:43:52;;;;;;;5.57;2.65;;;;;;;26.85;42.42;101394.34;4978779;28;20115;-72
2021/06/01 09:46:37;;;;;;;4.43;2.45;;;;;;;26.69;43.41;101386.97;4976858;28;20517;-71
2021/06/01 09:49:12;;;;;;;6.75;2.83;;;;;;;27.03;41.82;101392.50;4988702;28;20438;-71
2021/06/01 09:51:40;;;;;;;5.03;3.22;;;;;;;27.22;41.89;101390.63;4990442;28;20039;-72
2021/06/01 09:54:29;;;;;;;7.03;2.97;;;;;;;27.42;42.04;101386.34;4961684;28;20034;-71
2021/06/01 09:56:55;;;;;;;5.15;2.40;;;;;;;27.58;42.19;101385.34;4972750;28;20031;-71
2021/06/01 09:59:21;;;;;;;6.07;2.97;;;;;;;27.74;41.11;101387.88;4975963;28;20034;-71
2021/06/01 10:01:47;;;;;;;4.03;2.30;;;;;;;27.99;42.64;101387.69;4966900;28;20041;-72
2021/06/01 10:04:28;;;;;;;4.10;2.50;;;;;;;28.14;41.33;101379.59;4977706;28;20363;-72
2021/06/01 10:06:54;;;;;;;5.68;2.55;;;;;;;28.15;39.90;101378.38;4979772;28;20022;-72
2021/06/01 10:09:40;;;;;;;5.47;2.90;;;;;;;27.59;39.01;101378.59;4968746;28;20495;-71
2021/06/01 10:12:07;;;;;;;4.75;2.80;;;;;;;27.87;42.06;101385.81;4914817;29;20134;-72
2021/06/01 10:14:32;;;;;;;5.65;3.00;;;;;;;27.79;41.98;101373.47;4930819;28;20469;-73
2021/06/01 10:16:57;;;;;;;4.88;2.80;;;;;;;27.95;42.94;101375.25;4935220;29;20043;-73
2021/06/01 10:19:23;;;;;;;7.25;2.97;;;;;;;27.99;42.70;101371.06;4935271;29;20074;-73
2021/06/01 10:21:53;;;;;;;4.40;3.28;;;;;;;28.17;42.18;101376.69;4912779;29;20086;-73
2021/06/01 10:24:19;;;;;;;5.65;2.95;;;;;;;28.14;42.15;101366.53;4928479;29;20039;-73
2021/06/01 10:26:44;;;;;;;5.00;2.83;;;;;;;28.13;42.78;101367.75;4936525;28;20031;-73
2021/06/01 10:29:10;;;;;;;10.95;3.00;;;;;;;28.33;43.08;101370.88;4922964;29;20123;-73
2021/06/01 10:31:37;;;;;;;4.78;3.17;;;;;;;28.09;40.74;101352.47;4941684;29;20043;-73
2021/06/01 10:34:09;;;;;;;7.07;3.05;;;;;;;27.85;40.19;101354.25;4902569;29;20054;-73
2021/06/01 10:52:32;;;;;;;6.07;3.50;;;;;;;28.69;40.98;101339.66;4968336;28;20134;-73
2021/06/01 10:55:09;;;;;;;6.10;3.47;;;;;;;28.55;41.45;101339.50;4971552;28;20118;-73
2021/06/01 10:58:03;;;;;;;4.90;3.10;;;;;;;28.34;41.91;101335.59;4966021;28;20027;-73
2021/06/01 11:03:17;;;;;;;6.30;3.40;;;;;;;28.63;42.04;101330.41;4960578;28;20047;-74
2021/06/01 11:06:04;;;;;;;4.63;3.40;;;;;;;28.84;42.45;101334.25;4940515;28;20093;-73
2021/06/01 11:08:43;;;;;;;5.13;3.10;;;;;;;28.71;40.34;101336.41;4965063;28;20034;-73
2021/06/01 11:11:28;;;;;;;6.07;2.92;;;;;;;28.71;42.56;101337.19;4952043;28;20035;-76
2021/06/01 11:13:56;;;;;;;4.13;2.80;;;;;;;28.80;42.04;101336.44;4967065;28;20114;-72
2021/06/01 11:16:22;;;;;;;6.30;3.08;;;;;;;29.12;41.79;101325.44;4951913;28;20126;-73
2021/06/01 11:18:55;;;;;;;5.75;3.08;;;;;;;29.40;42.51;101335.25;4952100;28;20039;-73
2021/06/01 11:21:40;;;;;;;5.15;3.22;;;;;;;29.46;41.99;101317.97;4966481;28;20093;-75
2021/06/01 11:35:12;;;;;;;5.18;3.10;;;;;;;29.10;41.29;101321.56;4969639;28;20113;-73
2021/06/01 11:37:50;;;;;;;4.43;2.92;;;;;;;29.39;41.42;101319.81;4969313;28;20031;-73
2021/06/01 11:43:19;;;;;;;5.60;3.05;;;;;;;29.35;41.35;101312.88;4965263;28;20447;-73
2021/06/01 11:45:59;;;;;;;6.15;3.20;;;;;;;29.73;41.12;101310.31;4971583;28;20462;-76
2021/06/01 11:51:11;;;;;;;3.63;2.65;;;;;;;29.60;40.81;101303.41;4967136;28;20038;-73
2021/06/01 11:53:49;;;;;;;4.13;2.50;;;;;;;29.72;40.33;101294.88;4965389;28;20519;-73
2021/06/01 11:56:19;;;;;;;4.03;2.97;;;;;;;29.79;39.51;101290.97;4971857;28;20118;-73
2021/06/01 12:02:04;;;;;;;3.78;2.70;;;;;;;29.72;39.83;101286.53;4963764;28;20023;-73
2021/06/01 12:21:23;;;;;;;3.67;2.67;;;;;;;29.70;39.02;101277.88;4949034;28;20517;-73
2021/06/01 12:24:13;;;;;;;4.00;2.58;;;;;;;29.44;38.72;101276.00;4964692;28;20122;-74
2021/06/01 12:26:58;;;;;;;5.30;3.05;;;;;;;29.38;39.15;101267.53;4965301;28;20039;-74
2021/06/01 12:32:30;;;;;;;7.32;3.00;;;;;;;29.21;39.96;101269.16;4964451;28;20054;-73
2021/06/01 12:43:58;;;;;;;5.82;2.60;;;;;;;29.21;40.15;101255.28;4962520;28;20042;-74
2021/06/01 13:19:44;;;;;;;9.70;3.40;;;;;;;29.02;40.21;101217.66;4933313;28;20509;-74
2021/06/01 13:22:45;;;;;;;5.10;2.95;;;;;;;28.85;39.41;101216.50;4966533;28;20062;-72
2021/06/01 13:56:28;;;;;;;4.68;2.97;;;;;;;29.07;41.63;101192.84;4967284;28;20035;-70
2021/06/01 14:20:48;;;;;;;6.15;2.60;;;;;;;28.19;41.52;101179.47;4965345;28;20038;-70
2021/06/01 15:03:45;;;;;;;2.30;1.80;;;;;;;27.52;40.56;101179.53;4966223;28;20086;-70
2021/06/01 15:23:21;;;;;;;5.53;1.83;;;;;;;26.35;39.37;101157.59;4974320;28;20043;-72
2021/06/01 15:47:56;;;;;;;2.70;1.70;;;;;;;25.97;40.04;101143.94;4967955;28;20042;-73
2021/06/01 16:21:56;;;;;;;11.38;3.55;;;;;;;25.38;34.41;101138.44;4970504;28;20041;-74
2021/06/01 16:29:56;;;;;;;2.03;0.70;;;;;;;25.11;30.99;101143.66;4972377;28;20035;-73
2021/06/01 16:33:01;;;;;;;2.72;0.70;;;;;;;25.15;30.67;101127.78;4955589;28;20050;-73